createdAt,value
2017-08-04T15:45:35.743Z,4.33
2017-08-04T15:48:02.707Z,3.87
2017-08-04T15:50:29.891Z,3.50
2017-08-04T15:52:57.294Z,3.90
2017-08-04T15:55:24.638Z,3.93
2017-08-04T15:57:51.557Z,4.30
2017-08-04T16:00:18.848Z,3.40
2017-08-04T16:02:45.644Z,4.70
2017-08-04T16:05:13.041Z,4.13
2017-08-04T16:07:39.959Z,3.80
2017-08-04T16:10:06.784Z,4.30
2017-08-04T16:12:34.179Z,4.73
2017-08-04T16:15:01.136Z,5.47
2017-08-04T16:17:28.534Z,5.40
2017-08-04T16:19:56.514Z,5.47
2017-08-04T16:22:23.389Z,5.03
2017-08-04T16:24:50.333Z,5.10
2017-08-04T16:27:17.449Z,4.73
2017-08-04T16:29:44.778Z,4.10
2017-08-04T16:32:12.283Z,4.40
2017-08-04T16:34:39.221Z,4.17
2017-08-04T16:37:06.438Z,4.60
2017-08-04T16:39:33.342Z,4.40
2017-08-04T16:42:00.711Z,4.00
2017-08-04T16:44:28.167Z,4.10
2017-08-04T16:46:55.155Z,4.20
2017-08-04T16:49:24.706Z,4.27
2017-08-04T16:51:51.788Z,4.73
2017-08-04T16:54:19.114Z,4.37
2017-08-04T16:56:46.199Z,3.93
2017-08-04T16:59:13.944Z,4.57
2017-08-04T17:01:41.708Z,5.00
2017-08-04T17:04:08.772Z,4.63
2017-08-04T17:06:35.759Z,5.00
2017-08-04T17:09:02.887Z,4.40
2017-08-04T17:11:30.007Z,5.60
2017-08-04T17:14:02.095Z,4.50
2017-08-04T17:16:30.120Z,4.50
2017-08-04T17:18:57.080Z,5.13
2017-08-04T17:21:24.520Z,4.87
2017-08-04T17:23:51.519Z,4.93
2017-08-04T17:26:18.502Z,5.10
2017-08-04T17:28:45.503Z,5.40
2017-08-04T17:31:12.575Z,5.20
2017-08-04T17:33:39.593Z,5.40
2017-08-04T17:36:06.690Z,4.90
2017-08-04T17:38:33.652Z,5.17
2017-08-04T17:41:00.671Z,5.13
2017-08-04T17:43:28.167Z,4.80
2017-08-04T17:45:55.133Z,5.57
2017-08-04T17:48:22.100Z,4.77
2017-08-04T17:50:49.061Z,4.73
2017-08-04T17:53:15.976Z,4.53
2017-08-04T17:55:43.297Z,4.63
2017-08-04T17:58:22.656Z,5.23
2017-08-04T18:00:50.001Z,4.07
2017-08-04T18:03:18.388Z,4.73
2017-08-04T18:05:46.414Z,4.80
2017-08-04T18:08:13.962Z,4.50
2017-08-04T18:10:42.416Z,5.50
2017-08-04T18:13:10.919Z,4.70
2017-08-04T18:15:38.032Z,5.40
2017-08-04T18:18:05.674Z,5.53
2017-08-04T18:20:33.432Z,5.20
2017-08-04T18:23:00.500Z,5.00
2017-08-04T18:25:27.986Z,5.20
2017-08-04T18:27:55.704Z,4.90
2017-08-04T18:30:23.238Z,5.83
2017-08-04T18:32:51.383Z,4.67
2017-08-04T18:35:18.709Z,5.07
2017-08-04T18:37:47.118Z,5.30
2017-08-04T18:40:17.553Z,6.20
2017-08-04T18:42:46.643Z,5.10
2017-08-04T18:45:13.975Z,5.40
2017-08-04T18:47:42.906Z,5.03
2017-08-04T18:50:10.282Z,6.30
2017-08-04T18:52:37.648Z,6.40
2017-08-04T18:55:04.685Z,6.20
2017-08-04T18:57:31.833Z,5.60
2017-08-04T18:59:59.243Z,5.90
2017-08-04T19:02:26.196Z,6.60
2017-08-04T19:04:53.445Z,5.80
2017-08-04T19:07:21.769Z,6.37
2017-08-04T19:09:48.840Z,6.40
2017-08-04T19:12:16.437Z,6.60
2017-08-04T19:14:43.830Z,6.80
2017-08-04T19:17:10.992Z,5.33
2017-08-04T19:19:38.515Z,6.67
2017-08-04T19:22:05.825Z,6.23
2017-08-04T19:24:32.861Z,6.10
2017-08-04T19:27:00.624Z,5.57
2017-08-04T19:29:27.875Z,6.30
2017-08-04T19:31:54.756Z,6.63
2017-08-04T19:34:22.068Z,6.57
2017-08-04T19:36:49.558Z,6.40
2017-08-04T19:39:16.462Z,8.10
2017-08-04T19:41:43.597Z,7.07
2017-08-04T19:44:10.953Z,7.30
2017-08-04T19:46:38.359Z,6.47
2017-08-04T19:49:05.163Z,6.57
2017-08-04T19:51:32.104Z,6.10
2017-08-04T19:53:59.425Z,6.20
2017-08-04T19:56:26.968Z,5.80
2017-08-04T19:58:53.968Z,5.87
2017-08-04T20:01:21.182Z,5.53
2017-08-04T20:03:49.268Z,5.87
2017-08-04T20:06:16.626Z,6.43
2017-08-04T20:08:43.821Z,6.07
2017-08-04T20:11:11.112Z,6.60
2017-08-04T20:13:41.190Z,5.97
2017-08-04T20:16:09.059Z,6.57
2017-08-04T20:18:35.962Z,6.60
2017-08-04T20:21:02.800Z,5.60
2017-08-04T20:23:31.252Z,6.00
2017-08-04T20:25:58.220Z,4.67
2017-08-04T20:28:25.233Z,4.50
2017-08-04T20:30:53.551Z,4.20
2017-08-04T20:33:20.498Z,5.00
2017-08-04T20:35:47.478Z,5.13
2017-08-04T20:38:15.492Z,5.10
2017-08-04T20:40:43.016Z,4.53
2017-08-04T20:43:10.506Z,5.20
2017-08-04T20:45:37.613Z,5.40
2017-08-04T20:48:04.695Z,5.03
2017-08-04T20:50:31.668Z,5.70
2017-08-04T20:52:58.712Z,4.60
2017-08-04T20:55:25.761Z,4.70
2017-08-04T20:57:52.792Z,4.37
2017-08-04T21:00:19.972Z,5.00
2017-08-04T21:02:46.889Z,4.20
2017-08-04T21:05:13.975Z,5.20
2017-08-04T21:07:41.006Z,4.80
2017-08-04T21:10:08.136Z,3.90
2017-08-04T21:12:36.322Z,4.40
2017-08-04T21:15:03.289Z,4.27
2017-08-04T21:17:30.295Z,4.00
2017-08-04T21:19:57.232Z,4.60
2017-08-04T21:22:24.016Z,3.73
2017-08-04T21:24:50.955Z,4.23
2017-08-04T21:27:17.983Z,3.77
2017-08-04T21:29:44.748Z,3.77
2017-08-04T21:32:11.768Z,4.13
2017-08-04T21:34:38.810Z,4.27
2017-08-04T21:37:05.926Z,3.97
2017-08-04T21:39:34.197Z,3.80
2017-08-04T21:42:01.004Z,4.00
2017-08-04T21:44:29.200Z,3.53
2017-08-04T21:46:56.706Z,3.60
2017-08-04T21:49:24.070Z,3.73
2017-08-04T21:51:50.951Z,3.80
2017-08-04T21:54:18.301Z,3.77
2017-08-04T21:56:45.603Z,3.90
2017-08-04T21:59:12.845Z,3.50
2017-08-04T22:01:40.400Z,3.50
2017-08-04T22:04:07.282Z,3.43
2017-08-04T22:06:34.515Z,3.63
2017-08-04T22:09:01.858Z,3.50
2017-08-04T22:11:29.842Z,3.40
2017-08-04T22:13:57.615Z,3.10
2017-08-04T22:16:25.231Z,3.60
2017-08-04T22:18:53.440Z,3.47
2017-08-04T22:21:21.399Z,3.50
2017-08-04T22:23:49.437Z,3.10
2017-08-04T22:26:17.310Z,3.47
2017-08-04T22:28:44.185Z,3.40
2017-08-04T22:31:11.081Z,4.23
2017-08-04T22:33:38.784Z,2.97
2017-08-04T22:36:05.581Z,3.90
2017-08-04T22:38:33.056Z,3.60
2017-08-04T22:41:12.075Z,3.47
2017-08-04T22:43:38.857Z,3.83
2017-08-04T22:46:05.634Z,4.03
2017-08-04T22:48:32.522Z,3.37
2017-08-04T22:50:59.916Z,3.77
2017-08-04T22:53:26.678Z,3.00
2017-08-04T22:55:53.784Z,3.37
2017-08-04T22:58:22.358Z,3.80
2017-08-04T23:00:49.151Z,3.37
2017-08-04T23:03:16.370Z,3.20
2017-08-04T23:05:43.180Z,2.63
2017-08-04T23:08:09.989Z,3.83
2017-08-04T23:10:37.228Z,3.13
2017-08-04T23:13:04.037Z,3.00
2017-08-04T23:15:30.906Z,3.20
2017-08-04T23:17:57.827Z,3.10
2017-08-04T23:20:24.592Z,3.23
2017-08-04T23:22:51.900Z,2.83
2017-08-04T23:25:18.761Z,2.73
2017-08-04T23:27:45.584Z,2.90
2017-08-04T23:30:12.791Z,3.00
2017-08-04T23:32:40.066Z,2.30
2017-08-04T23:35:07.528Z,2.40
2017-08-04T23:37:34.984Z,3.20
2017-08-04T23:40:01.982Z,2.77
2017-08-04T23:42:29.136Z,3.33
2017-08-04T23:44:56.478Z,3.70
2017-08-04T23:47:23.265Z,2.90
2017-08-04T23:49:50.297Z,2.87
2017-08-04T23:52:17.535Z,3.67
2017-08-04T23:54:44.335Z,3.00
2017-08-04T23:57:11.354Z,3.20
2017-08-04T23:59:38.112Z,3.27
